Portada
METAR-TAF:

METAR-TAF

Aeroports :

El Borma, Tunísia

latitud: 31-41N, longitud: 009-10E, altitud: 258 m

Observació

L'informe es va fer fa 3 hores i 17 minuts, a les 16:00 UTC
Vent 7 kt del Oest/Nord-Oest, variant entre Oest i Nord/Nord-Oest
Temperatura 37°C
Humitat 13%
Pressió 1015 hPa
Visibilitat 10 km o més
sense núvols per sota de 1500 mi sense presència de cumulonimbus.

METAR: DTTR 141600Z 29007KT 260V330 CAVOK 37/04 Q1015 NOSIG:RMK:SIROCC O

Hora: 20:17 (19:17 UTC)

Pronòstic

L'informe es va fer fa 1 hora i 17 minuts, a les 18:00 UTC
Pronòstic vàlid del 14 a les 19 UTC al 15 a les 04 UTC
Vent 8 kt del Oest/Nord-Oest
Visibilitat 10 km o més
sense núvols per sota de 1500 mi sense presència de cumulonimbus.

TAF: DTTR 141800Z 1419/1504 29008KT CAVOK

Observacions i pronòstics meteorològics de més de 4000 aeroports (METAR i TAF).

Les estacions disponibles són els punts grocs i vermells al mapa.

Posi el ratolí al punt desitjat per veure el nom de l'estació.

Feu clic per veure les observacions i els pronòstics meteorològics.

Per canviar el mapa: feu clic els botons verds amb una creu de color negre per apropar; al botó verd amb un guió per allunyar la imatge; o en les fletxes verdes per a mapes adjacents.


METAR-TAF: